createdAt,value
2023-05-22T00:00:07.572Z,23.80
2023-05-22T00:02:38.902Z,23.20
2023-05-22T00:05:07.368Z,23.20
2023-05-22T00:07:35.310Z,23.10
2023-05-22T00:10:02.932Z,23.10
2023-05-22T00:12:30.484Z,23.10
2023-05-22T00:14:58.070Z,23.10
2023-05-22T00:17:26.455Z,23.10
2023-05-22T00:19:55.124Z,23.10
2023-05-22T00:22:23.184Z,23.10
2023-05-22T00:24:50.554Z,23.00
2023-05-22T00:27:17.886Z,23.30
2023-05-22T00:29:46.548Z,23.00
2023-05-22T00:32:14.021Z,23.00
2023-05-22T00:34:41.448Z,23.00
2023-05-22T00:37:09.015Z,22.90
2023-05-22T00:39:36.523Z,23.00
2023-05-22T00:42:04.263Z,23.00
2023-05-22T00:44:31.765Z,23.00
2023-05-22T00:46:59.198Z,22.90
2023-05-22T00:49:26.631Z,22.90
2023-05-22T00:51:54.222Z,23.40
2023-05-22T00:54:22.066Z,22.80
2023-05-22T00:56:50.339Z,22.80
2023-05-22T00:59:18.100Z,23.00
2023-05-22T01:01:45.524Z,22.70
2023-05-22T01:04:13.396Z,23.30
2023-05-22T01:06:41.360Z,22.60
2023-05-22T01:09:09.728Z,22.60
2023-05-22T01:11:59.107Z,22.60
2023-05-22T01:14:39.376Z,22.60
2023-05-22T01:17:34.746Z,22.60
2023-05-22T01:20:22.848Z,22.50
2023-05-22T01:23:23.801Z,22.50
2023-05-22T01:26:03.686Z,22.40
2023-05-22T01:28:53.342Z,22.40
2023-05-22T01:31:26.956Z,22.30
2023-05-22T01:34:00.935Z,22.30
2023-05-22T01:36:34.673Z,22.30
2023-05-22T01:39:06.100Z,22.20
2023-05-22T01:41:34.784Z,22.20
2023-05-22T01:44:02.871Z,22.80
2023-05-22T01:46:31.500Z,22.20
2023-05-22T01:48:59.854Z,22.20
2023-05-22T01:51:48.566Z,22.50
2023-05-22T01:54:20.012Z,22.10
2023-05-22T01:56:57.489Z,22.20
2023-05-22T01:59:38.320Z,22.10
2023-05-22T02:02:09.918Z,22.10
2023-05-22T02:04:45.352Z,22.10
2023-05-22T02:07:17.215Z,22.40
2023-05-22T02:09:46.853Z,22.10
2023-05-22T02:12:14.726Z,22.10
2023-05-22T02:14:44.156Z,22.60
2023-05-22T02:17:12.286Z,22.10
2023-05-22T02:19:39.797Z,22.10
2023-05-22T02:22:09.830Z,22.10
2023-05-22T02:24:37.792Z,22.10
2023-05-22T02:27:05.635Z,22.10
2023-05-22T02:29:33.468Z,22.10
2023-05-22T02:32:01.158Z,22.00
2023-05-22T02:34:29.666Z,22.00
2023-05-22T02:36:59.813Z,22.00
2023-05-22T02:39:27.959Z,21.90
2023-05-22T02:41:55.696Z,21.90
2023-05-22T02:44:23.332Z,21.80
2023-05-22T02:46:51.966Z,21.80
2023-05-22T02:49:19.516Z,21.80
2023-05-22T02:51:47.686Z,21.80
2023-05-22T02:54:16.603Z,21.90
2023-05-22T02:56:44.811Z,21.70
2023-05-22T02:59:12.638Z,21.70
2023-05-22T03:01:40.124Z,21.70
2023-05-22T03:04:07.857Z,21.60
2023-05-22T03:06:37.379Z,21.60
2023-05-22T03:09:05.044Z,21.60
2023-05-22T03:11:32.511Z,21.60
2023-05-22T03:14:00.365Z,21.60
2023-05-22T03:16:28.221Z,21.90
2023-05-22T03:19:10.164Z,21.80
2023-05-22T03:21:38.358Z,21.80
2023-05-22T03:24:06.849Z,21.70
2023-05-22T03:26:34.568Z,21.40
2023-05-22T04:24:27.559Z,20.20
2023-05-22T04:26:55.016Z,20.40
2023-05-22T04:29:22.802Z,20.70
2023-05-22T04:31:54.138Z,20.70
2023-05-22T04:34:21.831Z,20.70
2023-05-22T04:36:49.451Z,20.70
2023-05-22T04:39:19.034Z,20.70
2023-05-22T04:41:46.400Z,20.70
2023-05-22T04:44:14.344Z,20.80
2023-05-22T04:46:42.434Z,20.70
2023-05-22T04:49:10.383Z,21.10
2023-05-22T04:51:37.814Z,20.80
2023-05-22T04:54:06.277Z,20.80
2023-05-22T04:56:36.724Z,20.90
2023-05-22T04:59:08.818Z,21.00
2023-05-22T05:01:37.884Z,21.00
2023-05-22T05:04:06.108Z,21.00
2023-05-22T05:06:34.601Z,21.10
2023-05-22T05:09:03.676Z,21.20
2023-05-22T05:11:31.041Z,21.20
2023-05-22T05:13:58.737Z,21.60
2023-05-22T05:16:26.871Z,21.60
2023-05-22T05:18:55.635Z,21.60
2023-05-22T05:21:23.385Z,21.50
2023-05-22T05:23:51.988Z,22.20
2023-05-22T05:26:21.822Z,21.60
2023-05-22T05:28:49.762Z,22.40
2023-05-22T05:31:19.796Z,21.90
2023-05-22T05:34:06.799Z,22.00
2023-05-22T05:36:52.825Z,22.10
2023-05-22T05:39:22.300Z,22.80
2023-05-22T05:41:51.016Z,22.30
2023-05-22T05:44:19.341Z,22.90
2023-05-22T05:46:47.978Z,22.60
2023-05-22T05:49:19.852Z,22.70
2023-05-22T05:51:48.131Z,22.80
2023-05-22T05:54:17.013Z,22.90
2023-05-22T05:56:45.884Z,23.60
2023-05-22T05:59:14.007Z,23.20
2023-05-22T06:02:01.323Z,23.30
2023-05-22T06:04:33.630Z,23.40
2023-05-22T06:07:01.847Z,24.00
2023-05-22T06:09:36.295Z,23.60
2023-05-22T06:12:14.914Z,23.60
2023-05-22T06:14:45.136Z,23.70
2023-05-22T06:17:13.684Z,24.10
2023-05-22T06:19:42.921Z,23.90
2023-05-22T06:22:11.490Z,24.00
2023-05-22T06:24:41.495Z,24.00
2023-05-22T06:27:14.718Z,24.10
2023-05-22T06:29:42.069Z,24.60
2023-05-22T06:32:09.487Z,24.70
2023-05-22T06:34:40.280Z,24.50
2023-05-22T06:37:07.670Z,24.60
2023-05-22T06:39:40.663Z,24.70
2023-05-22T06:42:14.076Z,24.80
2023-05-22T06:45:13.758Z,24.90
2023-05-22T06:47:56.669Z,25.10
2023-05-22T06:50:25.267Z,25.30
2023-05-22T06:52:53.436Z,25.40
2023-05-22T06:55:20.995Z,25.80
2023-05-22T06:58:02.179Z,25.70
2023-05-22T07:00:30.126Z,26.40
2023-05-22T07:03:07.125Z,26.10
2023-05-22T07:05:43.398Z,26.80
2023-05-22T07:08:10.926Z,26.50
2023-05-22T07:10:38.971Z,27.30
2023-05-22T07:13:07.093Z,26.90
2023-05-22T07:15:35.500Z,27.00
2023-05-22T07:18:04.882Z,27.20
2023-05-22T07:20:32.775Z,27.40
2023-05-22T07:23:10.146Z,27.60
2023-05-22T07:25:39.800Z,28.00
2023-05-22T07:28:09.461Z,28.20
2023-05-22T07:30:45.866Z,28.40
2023-05-22T07:33:14.088Z,28.50
2023-05-22T07:35:41.500Z,28.70
2023-05-22T07:38:09.197Z,28.90
2023-05-22T07:40:39.079Z,29.10
2023-05-22T07:43:06.674Z,29.30
2023-05-22T07:45:34.293Z,29.50
2023-05-22T07:48:06.420Z,29.80
2023-05-22T07:50:36.448Z,30.10
2023-05-22T07:53:06.381Z,30.40
2023-05-22T07:55:37.876Z,30.60
2023-05-22T07:58:05.482Z,30.70
2023-05-22T08:00:37.736Z,31.10
2023-05-22T08:03:05.401Z,32.00
2023-05-22T08:05:32.980Z,31.80
2023-05-22T08:08:00.876Z,32.10
2023-05-22T08:10:37.261Z,32.90
2023-05-22T08:13:15.804Z,32.60
2023-05-22T08:15:44.223Z,32.90
2023-05-22T08:18:11.809Z,33.50
2023-05-22T08:20:40.445Z,33.50
2023-05-22T08:23:08.595Z,33.90
2023-05-22T08:25:36.095Z,33.90
2023-05-22T08:28:04.590Z,34.20
2023-05-22T08:30:32.334Z,34.60
2023-05-22T08:32:59.910Z,35.10
2023-05-22T08:35:32.968Z,35.10
2023-05-22T08:38:03.280Z,35.30
2023-05-22T08:40:37.742Z,35.50
2023-05-22T08:43:08.619Z,35.70
2023-05-22T08:45:37.653Z,35.80
2023-05-22T08:48:06.591Z,36.50
2023-05-22T08:50:40.445Z,36.10
2023-05-22T08:53:11.296Z,36.20
2023-05-22T08:55:39.765Z,36.40
2023-05-22T08:58:09.096Z,37.10
2023-05-22T09:00:38.038Z,36.90
2023-05-22T09:03:07.147Z,37.30
2023-05-22T09:05:36.261Z,37.40
2023-05-22T09:08:15.905Z,37.60
2023-05-22T09:10:47.722Z,37.70
2023-05-22T09:13:26.356Z,37.80
2023-05-22T09:15:58.271Z,38.00
2023-05-22T09:18:29.817Z,37.90
2023-05-22T09:20:58.997Z,38.30
2023-05-22T09:23:28.397Z,38.30
2023-05-22T09:25:58.133Z,38.60
2023-05-22T09:28:26.549Z,38.80
2023-05-22T09:30:55.446Z,39.00
2023-05-22T09:33:23.950Z,39.10
2023-05-22T09:35:55.332Z,39.50
2023-05-22T09:38:26.699Z,39.30
2023-05-22T09:40:54.852Z,39.30
2023-05-22T09:43:25.492Z,39.20
2023-05-22T09:46:00.216Z,39.00
2023-05-22T09:48:27.633Z,39.20
2023-05-22T09:50:56.067Z,38.80
2023-05-22T09:53:31.121Z,38.70
2023-05-22T09:56:00.043Z,38.60
2023-05-22T09:58:32.206Z,38.10
2023-05-22T10:01:01.233Z,37.80
2023-05-22T10:03:31.056Z,37.60
2023-05-22T10:06:00.550Z,37.40
2023-05-22T10:08:29.285Z,37.10
2023-05-22T10:10:58.570Z,36.90
2023-05-22T10:13:27.702Z,36.70
2023-05-22T10:15:55.954Z,36.50
2023-05-22T10:18:24.337Z,36.60
2023-05-22T10:20:52.523Z,36.10
2023-05-22T10:23:22.427Z,35.90
2023-05-22T10:25:51.966Z,36.00
2023-05-22T10:28:27.492Z,35.50
2023-05-22T10:31:01.915Z,35.30
2023-05-22T10:34:11.326Z,35.10
2023-05-22T10:36:48.577Z,34.90
2023-05-22T10:39:43.729Z,34.70
2023-05-22T10:42:14.828Z,34.40
2023-05-22T10:44:43.479Z,34.30
2023-05-22T10:47:13.363Z,34.20
2023-05-22T10:49:45.386Z,34.40
2023-05-22T10:52:15.010Z,33.90
2023-05-22T10:54:46.344Z,34.40
2023-05-22T10:57:18.626Z,34.20
2023-05-22T10:59:50.080Z,33.70
2023-05-22T11:02:22.456Z,33.70
2023-05-22T11:04:50.890Z,33.60
2023-05-22T11:07:18.450Z,33.50
2023-05-22T11:09:47.589Z,33.50
2023-05-22T11:12:17.090Z,33.60
2023-05-22T11:15:00.754Z,33.30
2023-05-22T11:17:32.804Z,33.30
2023-05-22T11:20:10.896Z,33.20
2023-05-22T11:22:41.130Z,33.20
2023-05-22T11:25:16.655Z,33.20
2023-05-22T11:27:45.410Z,33.10
2023-05-22T11:30:14.020Z,33.40
2023-05-22T11:32:47.871Z,32.90
2023-05-22T11:35:19.642Z,32.70
2023-05-22T11:37:51.845Z,33.30
2023-05-22T11:40:21.825Z,32.60
2023-05-22T11:42:52.685Z,32.60
2023-05-22T11:45:23.284Z,32.80
2023-05-22T11:47:50.889Z,32.50
2023-05-22T11:50:29.228Z,32.60
2023-05-22T11:53:02.854Z,32.70
2023-05-22T11:55:30.378Z,32.60
2023-05-22T11:57:58.323Z,32.50
2023-05-22T12:00:26.934Z,32.50
2023-05-22T12:02:55.027Z,32.50
2023-05-22T12:05:22.491Z,32.50
2023-05-22T12:07:50.349Z,32.50
2023-05-22T12:10:17.888Z,32.60
2023-05-22T12:12:45.643Z,32.50
2023-05-22T12:15:13.480Z,32.50
2023-05-22T12:17:41.343Z,32.50
2023-05-22T12:20:13.741Z,32.60
2023-05-22T12:22:45.926Z,32.50
2023-05-22T12:25:17.592Z,32.50
2023-05-22T12:27:46.567Z,32.40
2023-05-22T12:30:15.258Z,32.70
2023-05-22T12:32:48.879Z,32.30
2023-05-22T12:35:17.722Z,32.90
2023-05-22T12:37:50.075Z,32.80
2023-05-22T12:40:17.818Z,32.40
2023-05-22T12:42:45.798Z,32.40
2023-05-22T12:45:14.152Z,31.90
2023-05-22T12:47:42.820Z,32.40
2023-05-22T12:50:10.879Z,32.30
2023-05-22T12:52:39.230Z,32.40
2023-05-22T12:55:07.351Z,32.50
2023-05-22T12:57:34.742Z,32.50
2023-05-22T13:00:04.440Z,32.50
2023-05-22T13:02:33.045Z,32.50
2023-05-22T13:05:00.566Z,32.40
2023-05-22T13:07:27.982Z,32.40
2023-05-22T13:09:55.367Z,33.00
2023-05-22T13:12:23.818Z,32.50
2023-05-22T13:14:52.042Z,33.00
2023-05-22T13:17:19.398Z,32.50
2023-05-22T13:19:46.773Z,32.50
2023-05-22T13:22:14.793Z,32.60
2023-05-22T13:24:42.720Z,32.50
2023-05-22T13:27:10.175Z,32.60
2023-05-22T13:29:37.575Z,32.50
2023-05-22T13:32:05.523Z,32.50
2023-05-22T13:34:33.066Z,32.50
2023-05-22T13:37:01.277Z,32.50
2023-05-22T13:39:28.947Z,32.50
2023-05-22T13:41:56.499Z,32.50
2023-05-22T13:44:24.050Z,32.50
2023-05-22T13:46:51.581Z,32.50
2023-05-22T13:49:19.139Z,32.50
2023-05-22T13:51:46.963Z,32.50
2023-05-22T13:54:14.513Z,32.50
2023-05-22T13:56:42.418Z,33.10
2023-05-22T13:59:09.942Z,32.50
2023-05-22T14:01:37.439Z,32.50
2023-05-22T14:04:05.515Z,32.50
2023-05-22T14:06:33.533Z,32.50
2023-05-22T14:09:02.510Z,33.00
2023-05-22T14:11:30.090Z,32.40
2023-05-22T14:13:57.536Z,32.80
2023-05-22T14:16:25.535Z,32.40
2023-05-22T14:18:53.397Z,32.40
2023-05-22T14:21:21.031Z,32.40
2023-05-22T14:23:48.683Z,32.90
2023-05-22T14:26:16.362Z,32.40
2023-05-22T14:28:45.365Z,32.40
2023-05-22T14:31:12.715Z,32.40
2023-05-22T14:33:40.536Z,32.40
2023-05-22T14:36:08.424Z,32.40
2023-05-22T14:38:36.808Z,32.40
2023-05-22T14:41:04.341Z,32.40
2023-05-22T14:43:31.716Z,32.40
2023-05-22T14:45:59.830Z,32.40
2023-05-22T14:48:29.454Z,32.40
2023-05-22T14:50:56.965Z,32.40
2023-05-22T14:53:24.723Z,32.30
2023-05-22T14:55:52.161Z,32.30
2023-05-22T14:58:20.178Z,32.30
2023-05-22T15:00:47.573Z,32.30
2023-05-22T15:03:15.144Z,32.20
2023-05-22T15:05:43.408Z,32.70
2023-05-22T15:08:10.891Z,32.10
2023-05-22T15:10:38.372Z,32.00
2023-05-22T15:13:05.959Z,32.00
2023-05-22T15:15:33.447Z,32.00
2023-05-22T15:18:03.316Z,31.80
2023-05-22T15:20:31.709Z,31.70
2023-05-22T15:22:59.806Z,31.60
2023-05-22T15:25:27.506Z,32.00
2023-05-22T15:27:55.376Z,31.40
2023-05-22T15:30:23.478Z,31.20
2023-05-22T15:32:50.966Z,31.10
2023-05-22T15:35:18.589Z,31.00
2023-05-22T15:37:46.680Z,30.90
2023-05-22T15:40:18.255Z,30.80
2023-05-22T15:42:45.718Z,31.10
2023-05-22T15:45:14.275Z,31.10
2023-05-22T15:47:42.748Z,31.20
2023-05-22T15:50:14.318Z,31.30
2023-05-22T15:52:42.024Z,30.70
2023-05-22T15:55:09.477Z,30.70
2023-05-22T15:57:38.136Z,30.80
2023-05-22T16:00:06.473Z,30.80
2023-05-22T16:02:34.149Z,30.80
2023-05-22T16:05:02.452Z,31.50
2023-05-22T16:07:29.795Z,31.00
2023-05-22T16:09:57.521Z,31.00
2023-05-22T16:12:26.960Z,31.10
2023-05-22T16:15:00.058Z,31.50
2023-05-22T16:17:29.822Z,31.10
2023-05-22T16:19:58.393Z,31.10
2023-05-22T16:22:36.360Z,31.30
2023-05-22T16:25:16.585Z,31.20
2023-05-22T16:27:44.255Z,31.30
2023-05-22T16:30:12.226Z,31.30
2023-05-22T16:32:55.770Z,31.30
2023-05-22T16:35:32.278Z,31.40
2023-05-22T16:38:07.081Z,31.40
2023-05-22T16:40:34.498Z,31.40
2023-05-22T16:43:01.918Z,31.40
2023-05-22T16:45:29.587Z,31.40
2023-05-22T16:47:57.591Z,31.40
2023-05-22T16:50:28.304Z,31.40
2023-05-22T16:52:55.938Z,31.70
2023-05-22T16:55:23.335Z,31.40
2023-05-22T16:57:51.224Z,31.30
2023-05-22T17:00:19.505Z,31.40
2023-05-22T17:02:47.474Z,31.20
2023-05-22T17:05:14.966Z,31.20
2023-05-22T17:07:42.579Z,31.10
2023-05-22T17:10:10.576Z,31.00
2023-05-22T17:12:38.406Z,31.00
2023-05-22T17:15:06.594Z,30.80
2023-05-22T17:17:34.282Z,30.70
2023-05-22T17:20:02.377Z,30.60
2023-05-22T17:22:29.774Z,30.90
2023-05-22T17:24:57.364Z,30.10
2023-05-22T17:27:35.621Z,30.10
2023-05-22T17:30:04.837Z,29.80
2023-05-22T17:32:33.237Z,29.60
2023-05-22T17:35:01.950Z,29.90
2023-05-22T17:37:29.699Z,30.00
2023-05-22T17:39:57.144Z,29.70
2023-05-22T17:42:24.695Z,29.40
2023-05-22T17:44:52.064Z,29.40
2023-05-22T17:47:19.432Z,29.40
2023-05-22T17:49:47.137Z,29.40
2023-05-22T17:52:15.044Z,29.70
2023-05-22T17:54:42.457Z,29.40
2023-05-22T17:57:09.874Z,28.70
2023-05-22T17:59:39.837Z,28.50
2023-05-22T18:02:11.421Z,28.30
2023-05-22T18:04:38.844Z,28.20
2023-05-22T18:07:06.784Z,28.50
2023-05-22T18:09:35.424Z,28.50
2023-05-22T18:12:03.662Z,27.80
2023-05-22T18:14:31.536Z,27.70
2023-05-22T18:16:59.068Z,27.60
2023-05-22T18:19:26.619Z,27.50
2023-05-22T18:21:55.522Z,27.90
2023-05-22T18:24:25.963Z,27.40
2023-05-22T18:26:55.950Z,28.00
2023-05-22T18:29:23.410Z,27.60
2023-05-22T18:31:50.862Z,28.00
2023-05-22T18:34:18.499Z,27.40
2023-05-22T18:36:46.005Z,27.90
2023-05-22T18:39:14.908Z,27.40
2023-05-22T18:41:42.320Z,27.90
2023-05-22T18:44:09.980Z,27.40
2023-05-22T18:46:37.744Z,27.40
2023-05-22T18:49:05.283Z,27.40
2023-05-22T18:51:33.375Z,27.40
2023-05-22T18:54:00.894Z,27.40
2023-05-22T18:56:28.425Z,27.40
2023-05-22T18:58:56.269Z,27.90
2023-05-22T19:01:24.715Z,27.80
2023-05-22T19:03:52.088Z,27.20
2023-05-22T19:06:19.947Z,27.20
2023-05-22T19:08:47.369Z,27.00
2023-05-22T19:11:15.476Z,27.60
2023-05-22T19:13:44.205Z,27.30
2023-05-22T19:16:13.774Z,26.90
2023-05-22T19:18:41.482Z,27.40
2023-05-22T19:21:09.553Z,26.70
2023-05-22T19:23:37.420Z,27.30
2023-05-22T19:26:05.804Z,26.60
2023-05-22T19:28:33.352Z,27.00
2023-05-22T19:31:03.245Z,26.50
2023-05-22T19:33:32.382Z,26.40
2023-05-22T19:36:02.179Z,26.70
2023-05-22T19:38:31.034Z,26.20
2023-05-22T19:40:58.649Z,26.20
2023-05-22T19:43:26.276Z,26.10
2023-05-22T19:45:54.184Z,26.50
2023-05-22T19:48:21.661Z,26.00
2023-05-22T19:50:49.084Z,25.90
2023-05-22T19:53:16.573Z,26.20
2023-05-22T19:55:44.430Z,25.80
2023-05-22T19:58:11.770Z,25.80
2023-05-22T20:00:41.653Z,26.20
2023-05-22T20:03:09.670Z,25.70
2023-05-22T20:05:37.901Z,25.60
2023-05-22T20:08:05.841Z,25.60
2023-05-22T20:10:36.228Z,25.50
2023-05-22T20:13:05.167Z,25.40
2023-05-22T20:15:32.921Z,25.60
2023-05-22T20:18:02.565Z,25.40
2023-05-22T20:20:31.066Z,25.30
2023-05-22T20:22:59.462Z,25.20
2023-05-22T20:25:26.947Z,25.20
2023-05-22T20:27:54.330Z,25.10
2023-05-22T20:30:24.606Z,25.10
2023-05-22T20:32:52.039Z,25.40
2023-05-22T20:35:20.206Z,24.90
2023-05-22T20:37:48.025Z,24.90
2023-05-22T20:40:15.952Z,24.90
2023-05-22T20:42:43.747Z,24.90
2023-05-22T20:45:14.408Z,25.50
2023-05-22T20:47:43.897Z,24.80
2023-05-22T20:50:11.578Z,25.30
2023-05-22T20:52:39.287Z,24.70
2023-05-22T20:55:07.390Z,24.70
2023-05-22T20:57:35.137Z,24.70
2023-05-22T21:00:05.125Z,24.70
2023-05-22T21:02:33.144Z,24.70
2023-05-22T21:05:00.561Z,24.80
2023-05-22T21:07:28.301Z,24.60
2023-05-22T21:09:55.928Z,24.60
2023-05-22T21:12:23.262Z,24.60
2023-05-22T21:14:50.751Z,24.60
2023-05-22T21:17:18.489Z,24.70
2023-05-22T21:19:46.302Z,24.50
2023-05-22T21:22:13.724Z,24.50
2023-05-22T21:24:41.015Z,24.40
2023-05-22T21:27:08.303Z,24.70
2023-05-22T21:29:35.721Z,25.00
2023-05-22T21:32:03.093Z,24.40
2023-05-22T21:34:31.003Z,24.40
2023-05-22T21:36:58.459Z,24.30
2023-05-22T21:39:25.860Z,24.90
2023-05-22T21:41:53.226Z,24.30
2023-05-22T21:44:20.557Z,24.30
2023-05-22T21:46:47.969Z,24.80
2023-05-22T21:49:15.597Z,24.30
2023-05-22T21:51:42.947Z,24.30
2023-05-22T21:54:10.510Z,24.50
2023-05-22T21:56:38.535Z,24.20
2023-05-22T21:59:06.061Z,24.70
2023-05-22T22:01:33.521Z,24.20
2023-05-22T22:04:00.930Z,24.10
2023-05-22T22:06:28.378Z,24.20
2023-05-22T22:08:58.623Z,24.10
2023-05-22T22:11:26.537Z,24.10
2023-05-22T22:13:54.513Z,24.70
2023-05-22T22:16:22.236Z,24.10
2023-05-22T22:18:50.424Z,24.10
2023-05-22T22:21:17.865Z,24.10
2023-05-22T22:23:45.727Z,24.20
2023-05-22T22:26:13.672Z,24.10
2023-05-22T22:28:41.031Z,24.00
2023-05-22T22:31:08.332Z,24.40
2023-05-22T22:33:35.781Z,24.60
2023-05-22T22:36:03.347Z,23.90
2023-05-22T22:38:35.035Z,23.90
2023-05-22T22:41:04.733Z,23.80
2023-05-22T22:43:32.159Z,23.70
2023-05-22T22:46:00.050Z,23.70
2023-05-22T22:48:27.499Z,24.00
2023-05-22T22:50:55.075Z,24.30
2023-05-22T22:53:22.564Z,24.20
2023-05-22T22:55:55.858Z,23.60
2023-05-22T22:58:24.140Z,24.10
2023-05-22T23:00:51.572Z,23.60
2023-05-22T23:03:19.365Z,23.50
2023-05-22T23:05:46.842Z,23.50
2023-05-22T23:08:14.206Z,23.50
2023-05-22T23:10:41.510Z,23.50
2023-05-22T23:13:09.028Z,24.10
2023-05-22T23:15:36.912Z,23.80
2023-05-22T23:18:04.526Z,23.40
2023-05-22T23:20:31.947Z,24.00
2023-05-22T23:22:59.356Z,23.40
2023-05-22T23:25:26.974Z,23.40
2023-05-22T23:27:54.518Z,23.30
2023-05-22T23:30:21.896Z,23.30
2023-05-22T23:32:49.939Z,24.00
2023-05-22T23:35:17.390Z,23.50
2023-05-22T23:37:44.830Z,23.30
2023-05-22T23:40:12.639Z,23.30
2023-05-22T23:42:40.069Z,23.20
2023-05-22T23:45:07.900Z,23.30
2023-05-22T23:47:35.416Z,23.30
2023-05-22T23:50:02.743Z,23.30
2023-05-22T23:52:30.229Z,23.30
2023-05-22T23:54:58.285Z,23.30
2023-05-22T23:57:25.640Z,23.30
2023-05-22T23:59:52.987Z,23.40
